Reno, Minnesota
Current Conditions -  °F | °C
As of 6:53 AM on Wednesday 22 Oct 2014 (Local Time) from KLSE Reporting Station
Clear Clear  
Wind Chill: 31°   Ceiling: Unl
Heat Index: 36°   Visibility: 10mi
Dew Point: 33°   Wind: 6mph
Humidity: 89%   Direction: 120°ESE
Pressure: 30.31"   Gusts: NA
Location:  43.6451°N, 91.3164°W
Report Text: KLSE 221153Z 12005KT 10SM CLR 02/01 A3031 RMK AO2 SLP272 T00220006 10050 20022 53013
Loading
Personal Weather Stations






























Interactive Weather Map
Tropical Storm Tracking
New forecast layout! Learn more

10-Day Weather Forecast

Advertisements
Track Severe Weather on mobile